aviador You're here:

OPPS Decoded Metar

PESHAWAR in PAKISTAN
Report Time2017-12-11 05:00:00
UTC Time2017-12-11 05:39:14
Flight Rules lifr LIFR
Wind230° at 08 kt
W.Decomp.*RWY 17: 4.2 kt HW 6.8 kt RCW
W.Rank230° ranks 2
Current wind is above 230° avg. (6.7)
Visibility1000 m
Phenomena:Haze
Clouds:Scattered 040 Hf
Broken 075 Hf
Expected CloudBase > 3,600 ft AGL from Temp-Dew spread
Ceiling7,500 ft
Temp13°C (ISA 0)
Dew Point04°C (55% RH)
AAT8.8°C
QNH1018 hPa
Density Alt1,168 ft
Elevation1,181 ft
Report Wrong Elevation
Raw Report
METAR OPPS 110500Z 23008KT 1000 HZ SCT040 BKN075 13/04 Q1018=

Extra information for OPPS:More info

Metar Taf Metar & Taf Last 4 Metars F.Rules Stats Wind Profile Meteogram Temp Stats Airport Information Weather charts Add Link Nearby VenuesMetar ALERT Operation Metar Decoded Social comments